createdAt,value
2022-10-19T00:02:01.811Z,0.30
2022-10-19T00:04:29.945Z,0.20
2022-10-19T00:06:57.447Z,0.30
2022-10-19T00:09:24.920Z,0.20
2022-10-19T00:11:54.013Z,0.30
2022-10-19T00:14:23.964Z,0.20
2022-10-19T00:16:52.874Z,0.30
2022-10-19T00:19:21.657Z,0.20
2022-10-19T00:24:16.741Z,0.20
2022-10-19T00:26:44.250Z,0.30
2022-10-19T00:29:13.017Z,0.30
2022-10-19T00:31:42.075Z,0.30
2022-10-19T00:34:09.797Z,0.30
2022-10-19T00:36:39.658Z,0.20
2022-10-19T00:39:08.368Z,0.20
2022-10-19T00:41:36.649Z,0.30
2022-10-19T00:44:05.587Z,0.25
2022-10-19T00:46:34.095Z,0.30
2022-10-19T00:49:05.945Z,0.30
2022-10-19T00:51:37.103Z,0.30
2022-10-19T00:54:06.750Z,0.30
2022-10-19T00:56:34.596Z,0.30
2022-10-19T00:59:03.538Z,0.30
2022-10-19T01:01:32.856Z,0.25
2022-10-19T01:04:00.751Z,0.30
2022-10-19T01:06:30.046Z,0.30
2022-10-19T01:08:57.514Z,0.30
2022-10-19T01:11:32.497Z,0.30
2022-10-19T01:14:06.615Z,0.30
2022-10-19T01:16:41.175Z,0.30
2022-10-19T01:19:15.810Z,0.30
2022-10-19T01:21:46.976Z,0.30
2022-10-19T01:24:29.630Z,0.30
2022-10-19T01:27:16.063Z,0.30
2022-10-19T01:30:03.284Z,0.38
2022-10-19T01:32:36.556Z,0.30
2022-10-19T01:35:07.284Z,0.30
2022-10-19T01:37:36.284Z,0.20
2022-10-19T01:40:05.492Z,0.28
2022-10-19T01:42:33.880Z,0.30
2022-10-19T01:45:05.394Z,0.30
2022-10-19T01:47:35.939Z,0.30
2022-10-19T01:50:06.612Z,0.20
2022-10-19T01:52:35.047Z,0.30
2022-10-19T01:55:04.052Z,0.30
2022-10-19T01:57:34.022Z,0.32
2022-10-19T02:00:07.375Z,0.32
2022-10-19T02:02:41.240Z,0.30
2022-10-19T02:05:09.182Z,0.30
2022-10-19T02:07:38.582Z,0.30
2022-10-19T02:10:06.471Z,0.30
2022-10-19T02:12:34.777Z,0.30
2022-10-19T02:15:06.862Z,0.40
2022-10-19T02:17:36.411Z,0.32
2022-10-19T02:20:04.743Z,0.40
2022-10-19T02:22:32.720Z,0.30
2022-10-19T02:25:00.566Z,0.40
2022-10-19T02:27:28.065Z,0.30
2022-10-19T02:29:55.634Z,0.38
2022-10-19T02:32:24.446Z,0.30
2022-10-19T02:34:51.867Z,0.35
2022-10-19T02:37:22.059Z,0.30
2022-10-19T02:39:51.244Z,0.30
2022-10-19T02:42:21.013Z,0.40
2022-10-19T02:44:51.296Z,0.20
2022-10-19T02:47:20.280Z,0.30
2022-10-19T02:49:49.955Z,0.30
2022-10-19T02:52:17.398Z,0.30
2022-10-19T02:54:45.406Z,0.30
2022-10-19T02:57:17.032Z,0.30
2022-10-19T02:59:44.526Z,0.30
2022-10-19T03:02:11.923Z,0.30
2022-10-19T03:04:39.409Z,0.30
2022-10-19T03:07:08.232Z,0.30
2022-10-19T03:09:35.681Z,0.20
2022-10-19T03:12:03.193Z,0.20
2022-10-19T03:14:30.656Z,0.20
2022-10-19T03:16:58.080Z,0.30
2022-10-19T03:19:25.637Z,0.20
2022-10-19T03:21:53.089Z,0.20
2022-10-19T03:24:21.926Z,0.20
2022-10-19T03:26:49.512Z,0.20
2022-10-19T03:29:17.090Z,0.30
2022-10-19T03:31:44.557Z,0.20
2022-10-19T03:34:11.996Z,0.30
2022-10-19T03:36:40.406Z,0.20
2022-10-19T03:39:33.401Z,0.20
2022-10-19T03:42:02.373Z,0.30
2022-10-19T03:44:29.790Z,0.20
2022-10-19T03:46:57.329Z,0.22
2022-10-19T03:49:24.791Z,0.28
2022-10-19T03:51:52.238Z,0.30
2022-10-19T03:54:22.496Z,0.30
2022-10-19T03:56:53.843Z,0.20
2022-10-19T03:59:24.235Z,0.30
2022-10-19T04:01:51.748Z,0.20
2022-10-19T04:04:20.279Z,0.20
2022-10-19T04:06:48.696Z,0.20
2022-10-19T04:09:17.365Z,0.20
2022-10-19T04:11:45.011Z,0.20
2022-10-19T04:14:19.139Z,0.20
2022-10-19T04:16:55.944Z,0.30
2022-10-19T04:19:23.464Z,0.25
2022-10-19T04:21:50.908Z,0.20
2022-10-19T04:24:19.157Z,0.25
2022-10-19T04:26:47.460Z,0.28
2022-10-19T04:29:15.288Z,0.20
2022-10-19T04:31:42.970Z,0.30
2022-10-19T04:34:12.393Z,0.20
2022-10-19T04:36:39.934Z,0.20
2022-10-19T04:39:07.789Z,0.30
2022-10-19T04:41:35.517Z,0.20
2022-10-19T04:44:03.724Z,0.28
2022-10-19T04:46:31.634Z,0.30
2022-10-19T04:48:59.411Z,0.30
2022-10-19T04:51:28.429Z,0.30
2022-10-19T04:53:59.522Z,0.20
2022-10-19T04:56:28.107Z,0.20
2022-10-19T04:58:56.922Z,0.20
2022-10-19T05:01:24.818Z,0.20
2022-10-19T05:03:54.774Z,0.20
2022-10-19T05:06:22.306Z,0.20
2022-10-19T05:08:51.342Z,0.40
2022-10-19T05:11:19.514Z,0.30
2022-10-19T05:13:48.178Z,0.30
2022-10-19T05:16:17.759Z,0.30
2022-10-19T05:18:47.663Z,0.20
2022-10-19T05:21:15.680Z,0.20
2022-10-19T05:23:43.188Z,0.30
2022-10-19T05:26:12.951Z,0.20
2022-10-19T05:28:40.653Z,0.30
2022-10-19T05:31:09.167Z,0.30
2022-10-19T05:33:37.282Z,0.22
2022-10-19T05:36:11.987Z,0.20
2022-10-19T05:38:39.459Z,0.20
2022-10-19T05:41:07.005Z,0.20
2022-10-19T05:43:35.998Z,0.28
2022-10-19T05:46:04.263Z,0.30
2022-10-19T05:48:33.704Z,0.22
2022-10-19T05:51:01.299Z,0.20
2022-10-19T05:53:28.998Z,0.30
2022-10-19T05:55:56.497Z,0.30
2022-10-19T05:58:24.336Z,0.20
2022-10-19T06:00:53.706Z,0.30
2022-10-19T06:03:21.911Z,0.30
2022-10-19T06:05:50.009Z,0.20
2022-10-19T06:08:17.509Z,0.30
2022-10-19T06:10:44.928Z,0.20
2022-10-19T06:13:12.966Z,0.22
2022-10-19T06:15:40.950Z,0.30
2022-10-19T06:18:10.116Z,0.25
2022-10-19T06:20:37.829Z,0.20
2022-10-19T06:23:05.862Z,0.20
2022-10-19T06:25:33.386Z,0.30
2022-10-19T06:28:01.140Z,0.30
2022-10-19T06:30:28.822Z,0.20
2022-10-19T06:32:56.402Z,0.20
2022-10-19T06:35:25.183Z,0.20
2022-10-19T06:37:52.659Z,0.20
2022-10-19T06:40:20.228Z,0.20
2022-10-19T06:42:47.667Z,0.30
2022-10-19T06:45:15.133Z,0.30
2022-10-19T06:47:42.629Z,0.20
2022-10-19T06:50:10.477Z,0.30
2022-10-19T06:52:40.644Z,0.25
2022-10-19T06:55:08.683Z,0.30
2022-10-19T06:57:36.606Z,0.22
2022-10-19T07:00:04.719Z,0.20
2022-10-19T07:02:32.163Z,0.22
2022-10-19T07:05:03.242Z,0.20
2022-10-19T07:07:34.795Z,0.20
2022-10-19T07:10:03.859Z,0.20
2022-10-19T07:12:31.337Z,0.20
2022-10-19T07:14:58.787Z,0.20
2022-10-19T07:17:26.256Z,0.22
2022-10-19T07:19:53.681Z,0.20
2022-10-19T07:22:27.135Z,0.20
2022-10-19T07:24:58.245Z,0.20
2022-10-19T07:27:27.263Z,0.20
2022-10-19T07:29:54.695Z,0.20
2022-10-19T07:32:22.186Z,0.20
2022-10-19T07:34:49.929Z,0.20
2022-10-19T07:37:17.373Z,0.20
2022-10-19T07:39:44.789Z,0.20
2022-10-19T07:42:12.409Z,0.20
2022-10-19T07:44:41.269Z,0.15
2022-10-19T07:47:08.750Z,0.20
2022-10-19T07:49:36.185Z,0.20
2022-10-19T07:52:03.623Z,0.20
2022-10-19T07:54:31.208Z,0.20
2022-10-19T07:56:58.674Z,0.20
2022-10-19T07:59:26.195Z,0.20
2022-10-19T08:01:56.884Z,0.20
2022-10-19T08:04:55.909Z,0.20
2022-10-19T08:07:12.043Z,0.20
2022-10-19T08:09:52.890Z,0.20
2022-10-19T08:12:21.270Z,0.20
2022-10-19T08:14:48.936Z,0.20
2022-10-19T08:17:17.895Z,0.20
2022-10-19T08:19:45.753Z,0.20
2022-10-19T08:22:13.310Z,0.20
2022-10-19T08:24:40.896Z,0.20
2022-10-19T08:27:08.411Z,0.20
2022-10-19T08:29:35.888Z,0.10
2022-10-19T08:32:03.748Z,0.20
2022-10-19T08:34:33.218Z,0.20
2022-10-19T08:37:06.789Z,0.20
2022-10-19T08:39:42.355Z,0.20
2022-10-19T08:42:15.412Z,0.20
2022-10-19T08:44:50.591Z,0.30
2022-10-19T08:47:23.853Z,0.20
2022-10-19T08:49:53.110Z,0.30
2022-10-19T08:52:22.286Z,0.20
2022-10-19T08:54:52.048Z,0.20
2022-10-19T08:57:26.220Z,0.20
2022-10-19T08:59:56.864Z,0.20
2022-10-19T09:02:32.918Z,0.20
2022-10-19T09:05:04.635Z,0.20
2022-10-19T09:07:34.359Z,0.20
2022-10-19T09:10:03.507Z,0.20
2022-10-19T09:12:34.264Z,0.20
2022-10-19T09:15:03.436Z,0.20
2022-10-19T09:17:31.473Z,0.20
2022-10-19T09:19:59.781Z,0.20
2022-10-19T09:22:30.324Z,0.20
2022-10-19T09:25:00.908Z,0.20
2022-10-19T09:27:31.701Z,0.20
2022-10-19T09:29:59.764Z,0.20
2022-10-19T09:32:29.509Z,0.17
2022-10-19T09:35:01.039Z,0.10
2022-10-19T09:40:02.472Z,0.20
2022-10-19T09:42:33.876Z,0.20
2022-10-19T09:45:02.405Z,0.20
2022-10-19T09:47:33.796Z,0.20
2022-10-19T09:50:25.934Z,0.20
2022-10-19T09:52:56.498Z,0.20
2022-10-19T09:55:27.318Z,0.20
2022-10-19T09:58:00.667Z,0.20
2022-10-19T10:00:33.010Z,0.20
2022-10-19T10:03:00.477Z,0.20
2022-10-19T10:05:31.865Z,0.10
2022-10-19T10:08:00.730Z,0.20
2022-10-19T10:10:30.561Z,0.20
2022-10-19T10:12:58.811Z,0.20
2022-10-19T10:15:27.826Z,0.20
2022-10-19T10:17:56.458Z,0.20
2022-10-19T10:20:27.662Z,0.20
2022-10-19T10:22:57.933Z,0.20
2022-10-19T10:25:28.128Z,0.20
2022-10-19T10:27:56.949Z,0.30
2022-10-19T10:30:24.479Z,0.20
2022-10-19T10:32:53.381Z,0.20
2022-10-19T10:35:22.681Z,0.22
2022-10-19T10:37:50.716Z,0.20
2022-10-19T10:40:23.595Z,0.20
2022-10-19T10:42:53.573Z,0.20
2022-10-19T10:45:23.655Z,0.20
2022-10-19T10:47:51.756Z,0.20
2022-10-19T10:50:22.161Z,0.20
2022-10-19T10:52:59.877Z,0.20
2022-10-19T10:55:27.723Z,0.20
2022-10-19T10:58:03.490Z,0.20
2022-10-19T11:00:31.208Z,0.20
2022-10-19T11:03:02.022Z,0.20
2022-10-19T11:05:30.293Z,0.20
2022-10-19T11:08:01.986Z,0.20
2022-10-19T11:10:31.913Z,0.20
2022-10-19T11:13:04.313Z,0.20
2022-10-19T11:15:34.510Z,0.20
2022-10-19T11:18:06.950Z,0.20
2022-10-19T11:20:36.423Z,0.20
2022-10-19T11:23:09.104Z,0.20
2022-10-19T11:25:40.099Z,0.20
2022-10-19T11:28:17.372Z,0.20
2022-10-19T11:30:50.948Z,0.20
2022-10-19T11:33:24.262Z,0.20
2022-10-19T11:35:53.298Z,0.20
2022-10-19T11:38:41.783Z,0.20
2022-10-19T11:41:18.356Z,0.20
2022-10-19T11:43:52.790Z,0.20
2022-10-19T11:46:23.260Z,0.20
2022-10-19T11:48:59.725Z,0.20
2022-10-19T11:51:31.077Z,0.20
2022-10-19T11:54:08.967Z,0.20
2022-10-19T11:57:01.717Z,0.20
2022-10-19T11:59:38.390Z,0.20
2022-10-19T12:02:08.457Z,0.20
2022-10-19T12:04:42.962Z,0.20
2022-10-19T12:07:19.447Z,0.20
2022-10-19T12:09:51.474Z,0.20
2022-10-19T12:12:24.785Z,0.30
2022-10-19T12:14:55.433Z,0.20
2022-10-19T12:17:25.147Z,0.20
2022-10-19T12:19:54.923Z,0.20
2022-10-19T12:22:25.557Z,0.20
2022-10-19T12:24:55.279Z,0.20
2022-10-19T12:27:26.851Z,0.20
2022-10-19T12:29:56.115Z,0.13
2022-10-19T12:32:24.715Z,0.10
2022-10-19T12:34:56.568Z,0.20
2022-10-19T12:37:26.450Z,0.20
2022-10-19T12:39:58.816Z,0.20
2022-10-19T12:42:29.036Z,0.20
2022-10-19T12:45:11.863Z,0.20
2022-10-19T12:47:39.650Z,0.10
2022-10-19T12:50:07.830Z,0.20
2022-10-19T12:52:43.059Z,0.20
2022-10-19T12:55:27.311Z,0.20
2022-10-19T12:58:00.172Z,0.20
2022-10-19T13:00:30.493Z,0.20
2022-10-19T13:02:59.455Z,0.20
2022-10-19T13:05:28.630Z,0.20
2022-10-19T13:07:56.118Z,0.20
2022-10-19T13:10:25.541Z,0.20
2022-10-19T13:12:53.861Z,0.20
2022-10-19T13:15:39.959Z,0.20
2022-10-19T13:18:13.074Z,0.20
2022-10-19T13:20:52.244Z,0.20
2022-10-19T13:23:39.280Z,0.20
2022-10-19T13:26:21.705Z,0.20
2022-10-19T13:28:58.393Z,0.20
2022-10-19T13:31:27.999Z,0.20
2022-10-19T13:33:57.699Z,0.20
2022-10-19T13:36:26.020Z,0.20
2022-10-19T13:39:05.831Z,0.20
2022-10-19T13:41:50.348Z,0.17
2022-10-19T13:44:20.887Z,0.20
2022-10-19T13:46:53.103Z,0.20
2022-10-19T13:49:50.620Z,0.20
2022-10-19T13:52:31.366Z,0.20
2022-10-19T13:55:12.839Z,0.20
2022-10-19T13:57:50.140Z,0.20
2022-10-19T14:00:21.425Z,0.20
2022-10-19T14:03:05.510Z,0.20
2022-10-19T14:06:02.159Z,0.20
2022-10-19T14:08:44.323Z,0.20
2022-10-19T14:11:14.151Z,0.20
2022-10-19T14:13:41.624Z,0.20
2022-10-19T14:16:18.139Z,0.20
2022-10-19T14:18:45.581Z,0.10
2022-10-19T14:21:13.040Z,0.20
2022-10-19T14:23:42.565Z,0.20
2022-10-19T14:26:16.226Z,0.30
2022-10-19T14:28:43.972Z,0.20
2022-10-19T14:31:13.503Z,0.30
2022-10-19T14:33:42.362Z,0.20
2022-10-19T14:36:15.511Z,0.20
2022-10-19T14:38:46.419Z,0.20
2022-10-19T14:41:19.649Z,0.20
2022-10-19T14:43:47.125Z,0.20
2022-10-19T14:46:16.206Z,0.13
2022-10-19T14:48:45.384Z,0.20
2022-10-19T14:51:18.122Z,0.10
2022-10-19T14:53:49.386Z,0.20
2022-10-19T14:56:18.678Z,0.20
2022-10-19T14:58:50.023Z,0.20
2022-10-19T15:01:18.462Z,0.20
2022-10-19T15:03:46.827Z,0.10
2022-10-19T15:06:17.448Z,0.20
2022-10-19T15:08:48.747Z,0.20
2022-10-19T15:11:25.182Z,0.20
2022-10-19T15:13:57.237Z,0.20
2022-10-19T15:16:41.156Z,0.20
2022-10-19T15:19:16.397Z,0.17
2022-10-19T15:21:44.011Z,0.20
2022-10-19T15:24:22.632Z,0.20
2022-10-19T15:27:06.495Z,0.20
2022-10-19T15:29:34.383Z,0.20
2022-10-19T15:32:13.516Z,0.20
2022-10-19T15:34:42.248Z,0.20
2022-10-19T15:37:17.410Z,0.28
2022-10-19T15:39:46.415Z,0.20
2022-10-19T15:42:34.622Z,0.20
2022-10-19T15:45:02.377Z,0.20
2022-10-19T15:47:30.356Z,0.20
2022-10-19T15:50:01.496Z,0.10
2022-10-19T15:52:30.192Z,0.20
2022-10-19T15:55:02.968Z,0.20
2022-10-19T15:57:31.463Z,0.20
2022-10-19T15:59:59.960Z,0.32
2022-10-19T16:02:27.448Z,0.20
2022-10-19T16:04:55.244Z,0.30
2022-10-19T16:07:26.585Z,0.20
2022-10-19T16:13:11.836Z,0.30
2022-10-19T16:15:39.254Z,0.20
2022-10-19T16:18:06.679Z,0.20
2022-10-19T16:20:34.141Z,0.20
2022-10-19T16:23:01.570Z,0.30
2022-10-19T16:25:29.117Z,0.20
2022-10-19T16:27:56.571Z,0.20
2022-10-19T16:30:25.390Z,0.20
2022-10-19T16:32:52.844Z,0.20
2022-10-19T16:35:20.307Z,0.20
2022-10-19T16:37:47.786Z,0.20
2022-10-19T16:40:15.426Z,0.20
2022-10-19T16:42:43.120Z,0.30
2022-10-19T16:45:11.200Z,0.20
2022-10-19T16:47:39.956Z,0.22
2022-10-19T16:50:07.712Z,0.25
2022-10-19T16:52:35.446Z,0.20
2022-10-19T16:55:03.154Z,0.30
2022-10-19T16:57:30.822Z,0.30
2022-10-19T16:59:58.271Z,0.20
2022-10-19T17:02:25.704Z,0.30
2022-10-19T17:04:54.576Z,0.30
2022-10-19T17:07:22.201Z,0.30
2022-10-19T17:09:54.475Z,0.30
2022-10-19T17:12:22.437Z,0.30
2022-10-19T17:14:51.271Z,0.30
2022-10-19T17:17:18.753Z,0.28
2022-10-19T17:19:46.240Z,0.20
2022-10-19T17:22:15.124Z,0.10
2022-10-19T17:24:42.748Z,0.28
2022-10-19T17:27:10.413Z,0.30
2022-10-19T17:29:37.867Z,0.20
2022-10-19T17:32:05.421Z,0.20
2022-10-19T17:34:32.872Z,0.30
2022-10-19T17:37:00.355Z,0.30
2022-10-19T17:39:30.201Z,0.30
2022-10-19T17:42:01.710Z,0.30
2022-10-19T17:44:30.455Z,0.20
2022-10-19T17:46:57.934Z,0.20
2022-10-19T17:49:25.382Z,0.20
2022-10-19T17:51:53.079Z,0.30
2022-10-19T17:54:20.527Z,0.20
2022-10-19T17:56:49.335Z,0.30
2022-10-19T17:59:16.841Z,0.20
2022-10-19T18:01:44.291Z,0.30
2022-10-19T18:04:11.856Z,0.20
2022-10-19T18:06:39.649Z,0.30
2022-10-19T18:09:07.909Z,0.20
2022-10-19T18:11:36.987Z,0.30
2022-10-19T18:14:07.763Z,0.30
2022-10-19T18:16:36.610Z,0.30
2022-10-19T18:19:04.943Z,0.20
2022-10-19T18:21:33.475Z,0.30
2022-10-19T18:24:01.663Z,0.20
2022-10-19T18:26:29.827Z,0.20
2022-10-19T18:28:57.634Z,0.30
2022-10-19T18:31:29.158Z,0.30
2022-10-19T18:33:57.800Z,0.30
2022-10-19T18:36:25.239Z,0.30
2022-10-19T18:38:53.365Z,0.30
2022-10-19T18:41:21.308Z,0.30
2022-10-19T18:43:51.313Z,0.32
2022-10-19T18:46:19.752Z,0.30
2022-10-19T18:48:48.843Z,0.28
2022-10-19T18:51:17.295Z,0.35
2022-10-19T18:53:45.143Z,0.22
2022-10-19T18:56:13.566Z,0.25
2022-10-19T18:58:41.019Z,0.30
2022-10-19T19:01:09.215Z,0.38
2022-10-19T19:03:37.841Z,0.25
2022-10-19T19:06:07.793Z,0.30
2022-10-19T19:08:35.616Z,0.28
2022-10-19T19:11:09.726Z,0.30
2022-10-19T19:13:37.186Z,0.32
2022-10-19T19:16:04.877Z,0.30
2022-10-19T19:18:33.953Z,0.30
2022-10-19T19:21:01.389Z,0.30
2022-10-19T19:23:30.831Z,0.40
2022-10-19T19:25:58.282Z,0.30
2022-10-19T19:28:25.751Z,0.40
2022-10-19T19:30:53.208Z,0.35
2022-10-19T19:33:20.631Z,0.30
2022-10-19T19:35:48.822Z,0.30
2022-10-19T19:38:16.520Z,0.30
2022-10-19T19:40:45.964Z,0.28
2022-10-19T19:43:14.584Z,0.40
2022-10-19T19:45:42.837Z,0.30
2022-10-19T19:48:10.938Z,0.30
2022-10-19T19:50:39.008Z,0.30
2022-10-19T19:53:06.546Z,0.35
2022-10-19T19:55:38.163Z,0.40
2022-10-19T19:58:08.110Z,0.30
2022-10-19T20:00:35.556Z,0.30
2022-10-19T20:03:02.995Z,0.30
2022-10-19T20:05:30.507Z,0.32
2022-10-19T20:07:57.990Z,0.40
2022-10-19T20:10:25.614Z,0.30
2022-10-19T20:12:53.198Z,0.30
2022-10-19T20:15:22.821Z,0.40
2022-10-19T20:17:50.288Z,0.40
2022-10-19T20:20:18.810Z,0.30
2022-10-19T20:22:46.924Z,0.32
2022-10-19T20:25:14.351Z,0.30
2022-10-19T20:27:41.939Z,0.30
2022-10-19T20:30:09.793Z,0.30
2022-10-19T20:32:38.888Z,0.40
2022-10-19T20:35:07.369Z,0.40
2022-10-19T20:37:34.877Z,0.30
2022-10-19T20:40:08.172Z,0.30
2022-10-19T20:42:36.666Z,0.30
2022-10-19T20:45:04.543Z,0.40
2022-10-19T20:47:34.903Z,0.35
2022-10-19T20:52:36.746Z,0.30
2022-10-19T20:55:04.698Z,0.30
2022-10-19T20:57:32.156Z,0.50
2022-10-19T20:59:59.650Z,0.30
2022-10-19T21:02:27.094Z,0.30
2022-10-19T21:04:54.627Z,0.30
2022-10-19T21:07:23.451Z,0.35
2022-10-19T21:09:50.892Z,0.40
2022-10-19T21:12:18.295Z,0.30
2022-10-19T21:14:45.787Z,0.40
2022-10-19T21:17:13.220Z,0.30
2022-10-19T21:19:40.679Z,0.40
2022-10-19T21:22:08.476Z,0.30
2022-10-19T21:24:37.711Z,0.30
2022-10-19T21:27:05.831Z,0.30
2022-10-19T21:29:33.256Z,0.30
2022-10-19T21:32:00.701Z,0.30
2022-10-19T21:34:29.439Z,0.30
2022-10-19T21:36:57.238Z,0.30
2022-10-19T21:39:24.724Z,0.30
2022-10-19T21:41:53.820Z,0.32
2022-10-19T21:44:22.932Z,0.30
2022-10-19T21:46:50.558Z,0.40
2022-10-19T21:49:18.077Z,0.40
2022-10-19T21:51:46.171Z,0.45
2022-10-19T21:54:15.105Z,0.30
2022-10-19T21:56:42.926Z,0.30
2022-10-19T21:59:12.045Z,0.40
2022-10-19T22:01:41.150Z,0.30
2022-10-19T22:04:09.943Z,0.30
2022-10-19T22:06:37.547Z,0.40
2022-10-19T22:09:05.779Z,0.30
2022-10-19T22:11:33.309Z,0.30
2022-10-19T22:14:01.997Z,0.40
2022-10-19T22:16:31.091Z,0.40
2022-10-19T22:18:58.560Z,0.40
2022-10-19T22:21:27.006Z,0.30
2022-10-19T22:23:55.698Z,0.35
2022-10-19T22:26:23.823Z,0.40
2022-10-19T22:28:51.350Z,0.30
2022-10-19T22:31:18.908Z,0.30
2022-10-19T22:33:47.851Z,0.40
2022-10-19T22:36:16.064Z,0.30
2022-10-19T22:38:43.698Z,0.40
2022-10-19T22:41:11.258Z,0.28
2022-10-19T22:43:38.678Z,0.30
2022-10-19T22:46:06.312Z,0.30
2022-10-19T22:48:33.830Z,0.35
2022-10-19T22:51:02.594Z,0.32
2022-10-19T22:53:30.294Z,0.40
2022-10-19T22:55:57.786Z,0.30
2022-10-19T22:58:25.297Z,0.38
2022-10-19T23:01:05.310Z,0.30
2022-10-19T23:03:32.803Z,0.30
2022-10-19T23:06:02.702Z,0.40
2022-10-19T23:08:30.235Z,0.30
2022-10-19T23:10:57.752Z,0.40
2022-10-19T23:13:25.539Z,0.45
2022-10-19T23:15:53.094Z,0.30
2022-10-19T23:18:20.571Z,0.32
2022-10-19T23:20:54.851Z,0.47
2022-10-19T23:23:23.679Z,0.40
2022-10-19T23:26:01.082Z,0.38
2022-10-19T23:28:28.707Z,0.30
2022-10-19T23:30:57.147Z,0.35
2022-10-19T23:33:24.758Z,0.40
2022-10-19T23:35:52.371Z,0.43
2022-10-19T23:38:19.835Z,0.30
2022-10-19T23:40:48.652Z,0.32
2022-10-19T23:43:16.083Z,0.40
2022-10-19T23:45:45.160Z,0.30
2022-10-19T23:48:12.572Z,0.30
2022-10-19T23:50:40.097Z,0.40
2022-10-19T23:53:07.535Z,0.40
2022-10-19T23:55:35.008Z,0.30
2022-10-19T23:58:03.814Z,0.40
